createdAt,value
2023-05-04T00:02:17.372Z,99.90
2023-05-04T00:05:06.288Z,99.90
2023-05-04T00:07:54.452Z,99.90
2023-05-04T00:10:41.795Z,99.90
2023-05-04T00:13:29.353Z,99.90
2023-05-04T00:16:16.841Z,99.90
2023-05-04T00:19:05.554Z,99.90
2023-05-04T00:21:52.698Z,99.90
2023-05-04T00:24:40.193Z,99.90
2023-05-04T00:27:27.737Z,99.90
2023-05-04T00:30:15.864Z,99.90
2023-05-04T00:33:03.461Z,99.90
2023-05-04T00:35:52.569Z,99.90
2023-05-04T00:38:48.221Z,99.90
2023-05-04T00:41:35.955Z,99.90
2023-05-04T00:44:24.222Z,99.90
2023-05-04T00:47:13.052Z,99.90
2023-05-04T00:50:01.235Z,99.90
2023-05-04T00:52:50.753Z,99.90
2023-05-04T00:55:39.878Z,99.90
2023-05-04T00:58:27.580Z,99.90
2023-05-04T01:01:15.144Z,99.90
2023-05-04T01:04:03.261Z,99.90
2023-05-04T01:06:54.217Z,99.90
2023-05-04T01:09:44.522Z,99.90
2023-05-04T01:12:35.533Z,99.90
2023-05-04T01:15:23.946Z,99.90
2023-05-04T01:18:12.160Z,99.90
2023-05-04T01:20:59.559Z,99.90
2023-05-04T01:23:49.122Z,99.90
2023-05-04T01:26:40.489Z,99.90
2023-05-04T01:29:30.858Z,99.90
2023-05-04T01:32:18.797Z,99.90
2023-05-04T01:35:06.487Z,99.90
2023-05-04T01:37:54.639Z,99.90
2023-05-04T01:40:43.302Z,99.90
2023-05-04T01:43:32.485Z,99.90
2023-05-04T01:46:20.084Z,99.90
2023-05-04T01:49:08.168Z,99.90
2023-05-04T01:51:55.253Z,99.90
2023-05-04T01:54:45.048Z,99.90
2023-05-04T01:57:33.637Z,99.90
2023-05-04T02:00:21.177Z,99.90
2023-05-04T02:03:09.727Z,99.90
2023-05-04T02:05:57.533Z,99.90
2023-05-04T02:08:45.119Z,99.90
2023-05-04T02:11:32.498Z,99.90
2023-05-04T02:14:22.592Z,99.90
2023-05-04T02:17:10.265Z,99.90
2023-05-04T02:19:57.486Z,99.90
2023-05-04T02:22:45.745Z,99.90
2023-05-04T02:25:33.457Z,99.90
2023-05-04T02:28:20.745Z,99.90
2023-05-04T02:31:09.626Z,99.90
2023-05-04T02:33:56.888Z,99.90
2023-05-04T02:36:44.389Z,99.90
2023-05-04T02:39:32.121Z,99.90
2023-05-04T02:42:20.359Z,99.90
2023-05-04T02:45:08.843Z,99.90
2023-05-04T02:47:57.983Z,99.90
2023-05-04T02:50:46.634Z,99.90
2023-05-04T02:53:33.978Z,99.90
2023-05-04T02:56:21.528Z,99.90
2023-05-04T02:59:08.806Z,99.90
2023-05-04T03:01:56.519Z,99.90
2023-05-04T03:04:45.680Z,99.90
2023-05-04T03:07:33.839Z,99.90
2023-05-04T03:10:21.237Z,99.90
2023-05-04T03:13:08.686Z,99.90
2023-05-04T03:15:56.108Z,99.90
2023-05-04T03:18:43.774Z,99.90
2023-05-04T03:21:32.802Z,99.90
2023-05-04T03:24:20.431Z,99.90
2023-05-04T03:27:07.920Z,99.90
2023-05-04T03:29:57.681Z,99.90
2023-05-04T03:32:45.953Z,99.90
2023-05-04T03:35:34.037Z,99.90
2023-05-04T03:38:24.762Z,99.90
2023-05-04T03:41:13.078Z,99.90
2023-05-04T03:44:00.200Z,99.90
2023-05-04T03:46:47.823Z,99.90
2023-05-04T03:49:35.889Z,99.90
2023-05-04T03:52:22.914Z,99.90
2023-05-04T03:55:12.188Z,99.90
2023-05-04T03:58:02.083Z,99.90
2023-05-04T04:00:49.798Z,99.90
2023-05-04T04:03:39.078Z,99.90
2023-05-04T04:06:26.707Z,99.90
2023-05-04T04:09:14.220Z,99.90
2023-05-04T04:12:03.559Z,99.90
2023-05-04T04:14:52.562Z,99.90
2023-05-04T04:17:40.204Z,99.90
2023-05-04T04:20:31.149Z,99.90
2023-05-04T04:23:19.463Z,99.90
2023-05-04T04:26:07.551Z,99.90
2023-05-04T04:28:59.363Z,99.90
2023-05-04T04:31:47.417Z,99.90
2023-05-04T04:34:35.802Z,99.90
2023-05-04T04:37:23.573Z,99.90
2023-05-04T04:40:14.636Z,99.90
2023-05-04T04:43:03.305Z,99.90
2023-05-04T04:45:53.962Z,99.90
2023-05-04T04:48:42.594Z,99.90
2023-05-04T04:51:30.003Z,99.90
2023-05-04T04:54:17.292Z,99.90
2023-05-04T04:57:06.297Z,99.90
2023-05-04T04:59:54.569Z,99.90
2023-05-04T05:02:43.867Z,99.90
2023-05-04T05:05:31.894Z,99.90
2023-05-04T05:08:19.401Z,99.90
2023-05-04T05:11:07.414Z,99.90
2023-05-04T05:13:54.764Z,99.90
2023-05-04T05:16:42.382Z,99.90
2023-05-04T05:19:34.334Z,99.90
2023-05-04T05:22:22.670Z,99.90
2023-05-04T05:25:10.561Z,99.90
2023-05-04T05:27:58.030Z,99.90
2023-05-04T05:30:45.920Z,99.90
2023-05-04T05:33:33.899Z,99.90
2023-05-04T05:36:22.750Z,99.90
2023-05-04T05:39:10.520Z,99.90
2023-05-04T05:41:58.913Z,99.90
2023-05-04T05:44:46.777Z,99.90
2023-05-04T05:47:35.002Z,99.90
2023-05-04T05:50:24.193Z,99.90
2023-05-04T05:53:14.060Z,99.90
2023-05-04T05:56:01.788Z,99.90
2023-05-04T05:58:49.703Z,99.90
2023-05-04T06:01:37.262Z,99.90
2023-05-04T06:04:24.625Z,99.90
2023-05-04T06:07:13.770Z,99.90
2023-05-04T06:10:03.094Z,99.90
2023-05-04T06:12:53.615Z,99.90
2023-05-04T06:15:41.757Z,99.90
2023-05-04T06:18:29.219Z,99.90
2023-05-04T06:21:16.739Z,99.90
2023-05-04T06:24:07.750Z,99.90
2023-05-04T06:27:00.768Z,99.90
2023-05-04T06:29:53.797Z,99.90
2023-05-04T06:32:41.093Z,99.90
2023-05-04T06:35:31.157Z,99.90
2023-05-04T06:38:22.252Z,99.90
2023-05-04T06:41:13.386Z,99.90
2023-05-04T06:44:06.800Z,99.90
2023-05-04T06:46:54.458Z,99.90
2023-05-04T06:49:41.966Z,99.90
2023-05-04T06:52:30.070Z,99.90
2023-05-04T06:55:18.007Z,99.90
2023-05-04T06:58:05.952Z,99.90
2023-05-04T07:00:55.237Z,99.90
2023-05-04T07:03:43.273Z,99.90
2023-05-04T07:06:32.470Z,99.90
2023-05-04T07:09:20.086Z,99.90
2023-05-04T07:12:07.319Z,99.90
2023-05-04T07:14:55.215Z,99.90
2023-05-04T07:17:44.231Z,99.90
2023-05-04T07:20:31.798Z,99.90
2023-05-04T07:23:19.210Z,99.90
2023-05-04T07:26:08.217Z,99.90
2023-05-04T07:28:55.653Z,99.90
2023-05-04T07:31:43.687Z,99.90
2023-05-04T07:34:44.583Z,99.90
2023-05-04T07:37:33.930Z,99.90
2023-05-04T07:40:21.757Z,99.90
2023-05-04T07:43:09.106Z,99.90
2023-05-04T07:45:57.442Z,99.90
2023-05-04T07:48:44.947Z,99.90
2023-05-04T07:51:34.722Z,99.90
2023-05-04T07:54:23.449Z,99.90
2023-05-04T07:57:11.209Z,99.90
2023-05-04T07:59:59.396Z,99.90
2023-05-04T08:02:47.576Z,99.90
2023-05-04T08:05:35.389Z,99.90
2023-05-04T08:08:25.486Z,99.90
2023-05-04T08:11:20.686Z,99.90
2023-05-04T08:14:09.283Z,99.90
2023-05-04T08:16:57.005Z,99.90
2023-05-04T08:19:45.223Z,99.90
2023-05-04T08:22:33.625Z,99.90
2023-05-04T08:25:25.816Z,99.90
2023-05-04T08:28:13.635Z,99.90
2023-05-04T08:31:01.271Z,99.90
2023-05-04T08:33:51.584Z,99.90
2023-05-04T08:36:39.562Z,99.90
2023-05-04T08:39:27.994Z,99.90
2023-05-04T08:42:27.673Z,99.90
2023-05-04T08:45:16.336Z,99.90
2023-05-04T08:48:04.241Z,99.90
2023-05-04T08:50:52.554Z,99.90
2023-05-04T08:53:42.887Z,99.90
2023-05-04T08:56:30.533Z,99.90
2023-05-04T08:59:22.212Z,99.90
2023-05-04T09:02:10.686Z,99.90
2023-05-04T09:04:58.772Z,99.90
2023-05-04T09:07:49.103Z,99.90
2023-05-04T09:10:38.069Z,99.90
2023-05-04T09:13:26.524Z,99.90
2023-05-04T09:16:16.540Z,99.90
2023-05-04T09:19:07.581Z,99.90
2023-05-04T09:21:56.252Z,99.90
2023-05-04T09:24:44.704Z,99.90
2023-05-04T09:27:33.638Z,99.90
2023-05-04T09:30:22.514Z,99.90
2023-05-04T09:33:12.276Z,99.90
2023-05-04T09:36:01.590Z,99.90
2023-05-04T09:38:49.330Z,99.90
2023-05-04T09:41:37.445Z,99.90
2023-05-04T09:44:28.185Z,99.90
2023-05-04T09:47:18.696Z,99.90
2023-05-04T09:50:18.267Z,99.90
2023-05-04T09:53:09.624Z,99.90
2023-05-04T09:56:04.473Z,99.90
2023-05-04T09:58:54.251Z,99.90
2023-05-04T10:01:44.978Z,99.90
2023-05-04T10:04:33.253Z,99.90
2023-05-04T10:07:23.329Z,99.90
2023-05-04T10:10:13.122Z,99.90
2023-05-04T10:13:00.607Z,99.90
2023-05-04T10:15:52.795Z,99.90
2023-05-04T10:18:50.380Z,99.90
2023-05-04T10:21:45.401Z,99.90
2023-05-04T10:24:43.846Z,99.90
2023-05-04T10:27:40.702Z,99.90
2023-05-04T10:30:29.413Z,99.90
2023-05-04T10:33:23.289Z,99.90
2023-05-04T10:36:11.863Z,99.90
2023-05-04T10:39:13.622Z,99.90
2023-05-04T10:42:04.378Z,99.90
2023-05-04T10:44:55.456Z,99.90
2023-05-04T10:47:43.306Z,99.90
2023-05-04T10:50:31.859Z,99.90
2023-05-04T10:53:23.533Z,99.90
2023-05-04T10:56:20.828Z,99.90
2023-05-04T10:59:15.043Z,99.90
2023-05-04T11:02:03.722Z,99.90
2023-05-04T11:05:00.323Z,99.90
2023-05-04T11:07:56.109Z,99.90
2023-05-04T11:10:45.972Z,99.90
2023-05-04T11:13:35.158Z,99.90
2023-05-04T11:16:27.911Z,99.90
2023-05-04T11:19:19.226Z,99.90
2023-05-04T11:22:14.043Z,99.90
2023-05-04T11:25:02.597Z,99.90
2023-05-04T11:27:50.690Z,99.40
2023-05-04T11:30:45.476Z,99.90
2023-05-04T11:33:35.234Z,99.10
2023-05-04T11:36:23.874Z,99.50
2023-05-04T11:39:12.171Z,98.70
2023-05-04T11:42:01.319Z,98.20
2023-05-04T11:44:52.152Z,96.70
2023-05-04T11:47:41.293Z,96.80
2023-05-04T11:50:31.936Z,98.20
2023-05-04T11:53:22.980Z,99.90
2023-05-04T11:56:13.022Z,97.30
2023-05-04T11:59:09.354Z,97.10
2023-05-04T12:01:59.898Z,95.90
2023-05-04T12:04:49.001Z,96.40
2023-05-04T12:07:47.478Z,95.20
2023-05-04T12:10:36.213Z,95.60
2023-05-04T12:13:24.613Z,96.80
2023-05-04T12:16:12.770Z,97.60
2023-05-04T12:19:04.841Z,95.50
2023-05-04T12:21:58.072Z,95.10
2023-05-04T12:24:50.726Z,96.40
2023-05-04T12:27:42.194Z,95.30
2023-05-04T12:30:31.185Z,96.80
2023-05-04T12:33:19.302Z,96.60
2023-05-04T12:36:08.572Z,96.70
2023-05-04T12:38:55.968Z,95.70
2023-05-04T12:41:49.125Z,95.30
2023-05-04T12:44:37.067Z,95.20
2023-05-04T12:47:26.947Z,96.00
2023-05-04T12:50:14.933Z,95.70
2023-05-04T12:53:04.559Z,94.30
2023-05-04T12:55:52.373Z,95.80
2023-05-04T12:58:42.304Z,95.90
2023-05-04T13:01:30.974Z,94.60
2023-05-04T13:04:18.767Z,94.40
2023-05-04T13:07:07.370Z,93.60
2023-05-04T13:09:54.982Z,93.20
2023-05-04T13:12:46.018Z,92.40
2023-05-04T13:15:35.758Z,92.60
2023-05-04T13:18:27.408Z,92.60
2023-05-04T13:21:24.392Z,94.20
2023-05-04T13:24:14.980Z,92.50
2023-05-04T13:27:09.803Z,92.70
2023-05-04T13:30:03.168Z,89.00
2023-05-04T13:32:57.615Z,90.70
2023-05-04T13:35:49.540Z,89.20
2023-05-04T13:38:40.453Z,89.00
2023-05-04T13:41:27.829Z,87.10
2023-05-04T13:44:16.042Z,85.70
2023-05-04T13:47:04.776Z,83.00
2023-05-04T13:49:56.585Z,84.80
2023-05-04T13:52:47.983Z,81.30
2023-05-04T13:55:36.466Z,79.60
2023-05-04T13:58:24.402Z,75.90
2023-05-04T14:01:12.018Z,76.20
2023-05-04T14:04:00.251Z,76.10
2023-05-04T14:06:51.156Z,76.30
2023-05-04T14:09:40.032Z,72.40
2023-05-04T14:12:29.163Z,75.70
2023-05-04T14:15:24.706Z,70.70
2023-05-04T14:18:12.654Z,71.40
2023-05-04T14:21:00.845Z,72.80
2023-05-04T14:23:50.223Z,72.20
2023-05-04T14:26:38.259Z,73.30
2023-05-04T14:29:28.780Z,79.80
2023-05-04T14:32:16.725Z,74.80
2023-05-04T14:35:12.588Z,73.40
2023-05-04T14:38:03.134Z,74.40
2023-05-04T14:40:56.352Z,73.50
2023-05-04T14:43:53.267Z,72.70
2023-05-04T14:46:41.518Z,71.00
2023-05-04T14:49:37.060Z,77.20
2023-05-04T14:52:25.565Z,71.20
2023-05-04T14:55:17.041Z,75.50
2023-05-04T14:58:23.888Z,71.50
2023-05-04T15:01:13.528Z,70.40
2023-05-04T15:04:01.464Z,71.20
2023-05-04T15:06:50.730Z,71.60
2023-05-04T15:09:39.216Z,70.70
2023-05-04T15:12:28.956Z,72.00
2023-05-04T15:15:20.959Z,73.00
2023-05-04T15:18:11.961Z,72.20
2023-05-04T15:20:59.661Z,73.90
2023-05-04T15:23:48.666Z,72.70
2023-05-04T15:26:37.552Z,76.20
2023-05-04T15:29:28.018Z,71.90
2023-05-04T15:32:16.316Z,73.90
2023-05-04T15:35:20.718Z,72.50
2023-05-04T15:41:35.287Z,71.40
2023-05-04T15:44:24.502Z,73.40
2023-05-04T15:47:14.552Z,71.60
2023-05-04T15:50:05.001Z,77.10
2023-05-04T15:52:53.611Z,74.60
2023-05-04T15:55:41.656Z,74.30
2023-05-04T15:58:37.880Z,78.00
2023-05-04T16:01:28.426Z,75.30
2023-05-04T16:04:17.525Z,73.70
2023-05-04T16:11:39.376Z,72.60
2023-05-04T16:14:28.006Z,76.60
2023-05-04T16:17:17.920Z,75.20
2023-05-04T16:20:08.589Z,74.30
2023-05-04T16:22:56.991Z,80.20
2023-05-04T16:25:47.783Z,79.30
2023-05-04T16:28:37.373Z,79.70
2023-05-04T16:31:30.068Z,80.80
2023-05-04T16:34:18.866Z,81.00
2023-05-04T16:37:06.667Z,81.90
2023-05-04T16:39:55.537Z,81.60
2023-05-04T16:42:48.232Z,79.50
2023-05-04T16:45:37.405Z,82.60
2023-05-04T16:48:25.423Z,80.90
2023-05-04T16:51:13.972Z,82.30
2023-05-04T16:54:01.954Z,85.20
2023-05-04T16:56:50.533Z,84.40
2023-05-04T16:59:39.610Z,85.10
2023-05-04T17:02:31.915Z,82.60
2023-05-04T17:05:20.239Z,85.20
2023-05-04T17:08:07.949Z,89.50
2023-05-04T17:10:59.289Z,87.30
2023-05-04T17:13:47.665Z,85.70
2023-05-04T17:16:35.331Z,90.10
2023-05-04T17:19:24.723Z,88.90
2023-05-04T17:22:12.578Z,88.90
2023-05-04T17:25:00.804Z,89.20
2023-05-04T17:27:51.204Z,90.60
2023-05-04T17:30:40.583Z,92.40
2023-05-04T17:33:29.387Z,90.10
2023-05-04T17:36:18.653Z,93.10
2023-05-04T17:39:06.329Z,93.60
2023-05-04T17:41:54.461Z,94.80
2023-05-04T17:44:42.103Z,93.50
2023-05-04T17:47:31.498Z,93.50
2023-05-04T17:50:19.484Z,93.10
2023-05-04T17:53:08.854Z,93.30
2023-05-04T17:55:56.438Z,93.40
2023-05-04T17:58:43.939Z,95.10
2023-05-04T18:01:31.746Z,94.30
2023-05-04T18:04:19.661Z,94.50
2023-05-04T18:07:09.785Z,95.10
2023-05-04T18:09:59.383Z,95.80
2023-05-04T18:12:47.383Z,96.00
2023-05-04T18:15:35.588Z,96.40
2023-05-04T18:18:24.008Z,96.30
2023-05-04T18:21:14.082Z,97.10
2023-05-04T18:24:02.131Z,98.10
2023-05-04T18:26:54.290Z,98.90
2023-05-04T18:29:41.685Z,98.60
2023-05-04T18:32:31.461Z,99.50
2023-05-04T18:35:19.059Z,99.90
2023-05-04T18:38:07.457Z,99.70
2023-05-04T18:40:55.291Z,99.90
2023-05-04T18:43:44.528Z,99.90
2023-05-04T18:46:33.527Z,99.90
2023-05-04T18:49:21.080Z,99.90
2023-05-04T18:52:08.876Z,99.90
2023-05-04T18:54:57.316Z,99.90
2023-05-04T18:57:45.168Z,99.90
2023-05-04T19:00:35.466Z,99.90
2023-05-04T19:03:23.132Z,99.90
2023-05-04T19:06:11.004Z,99.90
2023-05-04T19:08:59.134Z,99.90
2023-05-04T19:11:47.683Z,99.90
2023-05-04T19:14:35.808Z,99.90
2023-05-04T19:17:24.948Z,99.90
2023-05-04T19:20:13.107Z,99.90
2023-05-04T19:23:00.804Z,99.90
2023-05-04T19:25:49.048Z,99.90
2023-05-04T19:28:40.289Z,99.90
2023-05-04T19:31:28.035Z,99.90
2023-05-04T19:34:17.954Z,99.90
2023-05-04T19:37:08.823Z,99.90
2023-05-04T19:39:58.035Z,99.90
2023-05-04T19:42:46.339Z,99.90
2023-05-04T19:45:34.119Z,99.90
2023-05-04T19:48:21.974Z,99.90
2023-05-04T19:51:10.927Z,99.90
2023-05-04T19:53:58.659Z,99.90
2023-05-04T19:56:46.503Z,99.90
2023-05-04T19:59:34.598Z,99.90
2023-05-04T20:02:22.151Z,99.90
2023-05-04T20:05:10.183Z,99.90
2023-05-04T20:08:04.780Z,99.90
2023-05-04T20:10:53.221Z,99.90
2023-05-04T20:13:42.762Z,99.90
2023-05-04T20:16:30.216Z,99.90
2023-05-04T20:19:18.878Z,99.90
2023-05-04T20:22:07.170Z,99.90
2023-05-04T20:25:00.137Z,99.90
2023-05-04T20:27:48.885Z,99.90
2023-05-04T20:30:37.729Z,99.90
2023-05-04T20:33:25.180Z,99.90
2023-05-04T20:36:12.951Z,99.90
2023-05-04T20:39:02.649Z,99.90
2023-05-04T20:41:51.856Z,99.90
2023-05-04T20:44:39.569Z,99.90
2023-05-04T20:47:27.800Z,99.90
2023-05-04T20:50:17.976Z,99.90
2023-05-04T20:53:05.612Z,99.90
2023-05-04T20:55:53.634Z,99.90
2023-05-04T20:58:42.787Z,99.90
2023-05-04T21:01:31.091Z,99.90
2023-05-04T21:04:19.377Z,99.90
2023-05-04T21:07:07.084Z,99.90
2023-05-04T21:09:57.145Z,99.90
2023-05-04T21:12:46.052Z,99.90
2023-05-04T21:15:36.611Z,99.90
2023-05-04T21:18:26.789Z,99.90
2023-05-04T21:21:16.273Z,99.90
2023-05-04T21:24:04.153Z,99.90
2023-05-04T21:26:52.116Z,99.90
2023-05-04T21:29:40.673Z,99.90
2023-05-04T21:32:29.830Z,99.90
2023-05-04T21:35:21.310Z,99.90
2023-05-04T21:38:08.619Z,99.90
2023-05-04T21:40:57.948Z,99.90
2023-05-04T21:43:45.854Z,99.90
2023-05-04T21:46:33.428Z,99.90
2023-05-04T21:49:22.518Z,99.90
2023-05-04T21:52:10.257Z,99.90
2023-05-04T21:54:58.953Z,99.90
2023-05-04T21:57:47.553Z,99.90
2023-05-04T22:00:39.468Z,99.90
2023-05-04T22:03:30.971Z,99.90
2023-05-04T22:06:24.686Z,99.90
2023-05-04T22:09:13.650Z,99.90
2023-05-04T22:12:02.546Z,99.90
2023-05-04T22:14:50.071Z,99.90
2023-05-04T22:17:37.872Z,99.90
2023-05-04T22:20:30.764Z,99.90
2023-05-04T22:23:20.934Z,99.90
2023-05-04T22:26:08.849Z,99.90
2023-05-04T22:28:57.286Z,99.90
2023-05-04T22:31:45.323Z,99.90
2023-05-04T22:34:32.913Z,99.90
2023-05-04T22:37:20.466Z,99.90
2023-05-04T22:40:12.608Z,99.90
2023-05-04T22:43:00.750Z,99.90
2023-05-04T22:45:48.754Z,99.90
2023-05-04T22:48:38.089Z,99.90
2023-05-04T22:51:25.880Z,99.90
2023-05-04T22:54:13.454Z,99.90
2023-05-04T22:57:02.396Z,99.90
2023-05-04T22:59:50.306Z,99.90
2023-05-04T23:02:38.058Z,99.90
2023-05-04T23:05:25.961Z,99.90
2023-05-04T23:08:14.051Z,99.90
2023-05-04T23:11:01.511Z,99.90
2023-05-04T23:13:53.934Z,99.90
2023-05-04T23:16:43.186Z,99.90
2023-05-04T23:19:32.832Z,99.90
2023-05-04T23:22:20.711Z,99.90
2023-05-04T23:25:09.056Z,99.90
2023-05-04T23:27:57.001Z,99.90
2023-05-04T23:30:45.823Z,99.90
2023-05-04T23:33:34.201Z,99.90
2023-05-04T23:36:23.184Z,99.90
2023-05-04T23:39:11.083Z,99.90
2023-05-04T23:42:00.650Z,99.90
2023-05-04T23:44:52.090Z,99.90
2023-05-04T23:47:42.510Z,99.90
2023-05-04T23:50:30.574Z,99.90
2023-05-04T23:53:18.620Z,99.90
2023-05-04T23:56:06.844Z,99.90
2023-05-04T23:58:54.758Z,99.90
